Time;durP1;ratioP1;P1;durP2;ratioP2;P2;SDS_P1;SDS_P2;PMS_P1;PMS_P2;Temp;Humidity;BMP_temperature;BMP_pressure;BME280_temperature;BME280_humidity;BME280_pressure;Samples;Min_cycle;Max_cycle;Signal;HPM_P1;HPM_P2
2022/12/16 00:01:34;;;;;;;;;;;21.50;31.40;;;;;;501011;237;1110;-44
2022/12/16 00:03:36;;;;;;;;;;;21.50;31.50;;;;;;500995;237;1129;-44
2022/12/16 00:05:37;;;;;;;;;;;21.50;31.40;;;;;;500811;237;1149;-44
2022/12/16 00:07:38;;;;;;;;;;;21.50;31.40;;;;;;500998;237;1112;-44
2022/12/16 00:09:40;;;;;;;;;;;21.50;31.40;;;;;;500547;237;1143;-44
2022/12/16 00:11:41;;;;;;;;;;;21.50;31.40;;;;;;500524;237;1064;-44
2022/12/16 00:13:42;;;;;;;;;;;21.50;31.40;;;;;;500936;237;1135;-44
2022/12/16 00:15:45;;;;;;;;;;;21.50;31.40;;;;;;500892;237;2187;-44
2022/12/16 00:17:45;;;;;;;;;;;21.50;31.40;;;;;;500802;237;2015;-44
2022/12/16 00:19:47;;;;;;;;;;;21.50;31.30;;;;;;501018;237;1105;-44
2022/12/16 00:21:48;;;;;;;;;;;21.50;31.30;;;;;;500490;237;1217;-44
2022/12/16 00:23:49;;;;;;;;;;;21.50;31.50;;;;;;501018;237;1049;-44
2022/12/16 00:25:51;;;;;;;;;;;21.50;31.50;;;;;;500572;237;1086;-44
2022/12/16 00:27:52;;;;;;;;;;;21.50;31.40;;;;;;500977;237;1099;-44
2022/12/16 00:29:53;;;;;;;;;;;21.50;31.40;;;;;;501003;237;1063;-44
2022/12/16 00:31:55;;;;;;;;;;;21.50;31.30;;;;;;500605;237;1081;-44
2022/12/16 00:33:56;;;;;;;;;;;21.60;31.40;;;;;;500835;237;1123;-44
2022/12/16 00:35:57;;;;;;;;;;;21.50;31.30;;;;;;500926;237;2159;-44
2022/12/16 00:37:58;;;;;;;;;;;21.50;31.30;;;;;;500889;237;1214;-44
2022/12/16 00:40:00;;;;;;;;;;;21.60;31.40;;;;;;500563;237;1674;-44
2022/12/16 00:42:01;;;;;;;;;;;21.60;31.30;;;;;;500299;237;1904;-44
2022/12/16 00:44:02;;;;;;;;;;;21.60;31.40;;;;;;500297;237;1520;-44
2022/12/16 00:46:04;;;;;;;;;;;21.60;31.40;;;;;;500829;237;1756;-43
2022/12/16 00:48:05;;;;;;;;;;;21.60;31.40;;;;;;500444;237;1635;-44
2022/12/16 00:50:06;;;;;;;;;;;21.60;31.40;;;;;;500348;237;1666;-43
2022/12/16 00:52:08;;;;;;;;;;;21.60;31.40;;;;;;500376;237;1227;-44
2022/12/16 00:54:09;;;;;;;;;;;21.60;31.40;;;;;;500479;237;1729;-43
2022/12/16 00:56:10;;;;;;;;;;;21.60;31.30;;;;;;500776;237;2185;-43
2022/12/16 00:58:12;;;;;;;;;;;21.60;31.30;;;;;;500409;237;1678;-43
2022/12/16 01:00:13;;;;;;;;;;;21.60;31.30;;;;;;500729;237;1239;-43
2022/12/16 01:02:14;;;;;;;;;;;21.60;31.20;;;;;;500596;237;1182;-43
2022/12/16 01:04:16;;;;;;;;;;;21.60;31.20;;;;;;500557;237;1220;-44
2022/12/16 01:06:17;;;;;;;;;;;21.60;31.30;;;;;;500856;237;1175;-43
2022/12/16 01:08:18;;;;;;;;;;;21.70;31.30;;;;;;500779;237;1196;-44
2022/12/16 01:10:20;;;;;;;;;;;21.70;31.20;;;;;;500899;237;1380;-43
2022/12/16 01:12:21;;;;;;;;;;;21.60;31.20;;;;;;500352;237;1237;-44
2022/12/16 01:14:22;;;;;;;;;;;21.60;31.20;;;;;;500292;237;1300;-44
2022/12/16 01:16:24;;;;;;;;;;;21.70;31.20;;;;;;500354;237;2176;-44
2022/12/16 01:18:25;;;;;;;;;;;21.70;31.20;;;;;;500265;237;1517;-44
2022/12/16 01:20:26;;;;;;;;;;;21.60;31.20;;;;;;500155;237;1641;-44
2022/12/16 01:22:28;;;;;;;;;;;21.70;31.10;;;;;;500054;237;2079;-44
2022/12/16 01:24:29;;;;;;;;;;;21.70;31.10;;;;;;500116;237;2143;-43
2022/12/16 01:26:31;;;;;;;;;;;21.70;31.10;;;;;;500177;237;1560;-44
2022/12/16 01:28:32;;;;;;;;;;;21.70;31.10;;;;;;500101;237;1343;-44
2022/12/16 01:30:33;;;;;;;;;;;21.70;31.10;;;;;;500072;237;2023;-44
2022/12/16 01:32:35;;;;;;;;;;;21.80;31.10;;;;;;500037;237;1697;-44
2022/12/16 01:34:36;;;;;;;;;;;21.80;31.10;;;;;;500110;237;1739;-44
2022/12/16 01:36:37;;;;;;;;;;;21.80;31.10;;;;;;500420;237;2195;-44
2022/12/16 01:38:39;;;;;;;;;;;21.80;31.00;;;;;;500218;237;1880;-44
2022/12/16 01:40:40;;;;;;;;;;;21.80;31.00;;;;;;500560;237;1459;-44
2022/12/16 01:42:41;;;;;;;;;;;21.80;31.00;;;;;;500827;237;1231;-44
2022/12/16 01:44:43;;;;;;;;;;;22.00;31.00;;;;;;500390;237;1404;-44
2022/12/16 01:46:44;;;;;;;;;;;22.10;30.60;;;;;;500411;237;1363;-44
2022/12/16 01:48:45;;;;;;;;;;;22.30;30.40;;;;;;500825;237;1224;-44
2022/12/16 01:50:47;;;;;;;;;;;22.40;30.30;;;;;;500438;237;1264;-44
2022/12/16 01:52:48;;;;;;;;;;;22.40;30.30;;;;;;500636;237;1347;-44
2022/12/16 01:54:49;;;;;;;;;;;22.20;30.40;;;;;;500895;237;1716;-44
2022/12/16 01:56:51;;;;;;;;;;;22.10;30.50;;;;;;500859;237;2192;-44
2022/12/16 01:58:52;;;;;;;;;;;22.10;30.70;;;;;;500508;237;1194;-44
2022/12/16 02:00:53;;;;;;;;;;;22.00;30.80;;;;;;500792;237;1409;-44
2022/12/16 02:02:55;;;;;;;;;;;22.00;30.80;;;;;;500685;237;1576;-44
2022/12/16 02:07:15;;;;;;;;;;;22.00;31.00;;;;;;500577;238;1564;-44
2022/12/16 02:09:16;;;;;;;;;;;22.00;31.00;;;;;;500424;237;1674;-44
2022/12/16 02:11:18;;;;;;;;;;;21.90;31.00;;;;;;500300;237;1338;-44
2022/12/16 02:13:19;;;;;;;;;;;21.90;31.00;;;;;;500886;237;1937;-44
2022/12/16 02:15:20;;;;;;;;;;;21.90;31.00;;;;;;500419;237;1256;-44
2022/12/16 02:17:22;;;;;;;;;;;21.90;31.00;;;;;;500381;237;2114;-44
2022/12/16 02:19:23;;;;;;;;;;;21.90;31.00;;;;;;500916;237;1381;-43
2022/12/16 02:21:26;;;;;;;;;;;21.90;31.00;;;;;;500909;237;1207;-44
2022/12/16 02:23:26;;;;;;;;;;;21.90;31.00;;;;;;500535;237;1477;-44
2022/12/16 02:25:27;;;;;;;;;;;21.90;31.00;;;;;;500708;237;1522;-44
2022/12/16 02:27:29;;;;;;;;;;;21.90;31.00;;;;;;500512;237;1247;-44
2022/12/16 02:29:30;;;;;;;;;;;21.90;31.00;;;;;;500302;237;1586;-43
2022/12/16 02:31:31;;;;;;;;;;;21.90;31.00;;;;;;500425;237;1370;-44
2022/12/16 02:33:33;;;;;;;;;;;21.90;31.10;;;;;;500902;237;1327;-44
2022/12/16 02:35:34;;;;;;;;;;;21.90;31.00;;;;;;500406;237;2175;-44
2022/12/16 02:37:35;;;;;;;;;;;21.90;31.00;;;;;;500830;237;1662;-44
2022/12/16 02:39:37;;;;;;;;;;;21.90;31.10;;;;;;500559;237;1701;-43
2022/12/16 02:41:38;;;;;;;;;;;21.90;31.10;;;;;;500559;237;1727;-44
2022/12/16 02:43:39;;;;;;;;;;;21.90;31.00;;;;;;500205;237;2135;-44
2022/12/16 02:45:40;;;;;;;;;;;21.90;31.00;;;;;;500212;237;1970;-44
2022/12/16 02:47:42;;;;;;;;;;;21.90;31.00;;;;;;500419;237;1671;-44
2022/12/16 02:49:43;;;;;;;;;;;21.90;31.00;;;;;;500264;237;1542;-43
2022/12/16 02:51:45;;;;;;;;;;;21.90;31.00;;;;;;500488;237;1781;-44
2022/12/16 02:53:46;;;;;;;;;;;21.90;31.00;;;;;;500245;237;1691;-44
2022/12/16 02:55:47;;;;;;;;;;;21.90;31.00;;;;;;500661;237;2176;-43
2022/12/16 02:57:49;;;;;;;;;;;21.90;31.00;;;;;;500238;237;1721;-44
2022/12/16 02:59:50;;;;;;;;;;;21.80;31.00;;;;;;500889;237;1236;-43
2022/12/16 03:01:51;;;;;;;;;;;21.90;31.10;;;;;;500559;237;1656;-43
2022/12/16 03:03:53;;;;;;;;;;;21.80;31.10;;;;;;500774;237;1830;-43
2022/12/16 03:05:54;;;;;;;;;;;21.80;31.10;;;;;;500514;238;2042;-43
2022/12/16 03:07:56;;;;;;;;;;;21.80;31.20;;;;;;500772;237;1777;-40
2022/12/16 03:09:58;;;;;;;;;;;21.80;31.30;;;;;;500420;237;1756;-43
2022/12/16 03:11:59;;;;;;;;;;;21.80;31.30;;;;;;500508;237;1752;-41
2022/12/16 03:14:01;;;;;;;;;;;21.80;31.30;;;;;;500541;237;1602;-44
2022/12/16 03:16:02;;;;;;;;;;;21.70;31.30;;;;;;500715;237;2149;-43
2022/12/16 03:18:04;;;;;;;;;;;21.70;31.30;;;;;;500574;237;1752;-43
2022/12/16 03:20:06;;;;;;;;;;;21.60;31.30;;;;;;500494;237;1909;-42
2022/12/16 03:22:08;;;;;;;;;;;21.70;31.40;;;;;;500649;237;1677;-43
2022/12/16 03:24:12;;;;;;;;;;;21.70;31.40;;;;;;500479;237;2658;-41
2022/12/16 03:26:14;;;;;;;;;;;21.60;31.40;;;;;;500557;237;1599;-43
2022/12/16 03:28:15;;;;;;;;;;;21.60;31.40;;;;;;500752;238;2622;-44
2022/12/16 03:30:17;;;;;;;;;;;21.60;31.40;;;;;;500455;237;1550;-43
2022/12/16 03:32:20;;;;;;;;;;;21.60;31.50;;;;;;500606;237;1602;-43
2022/12/16 03:34:22;;;;;;;;;;;21.70;31.40;;;;;;500478;237;1845;-40
2022/12/16 03:36:23;;;;;;;;;;;21.70;31.40;;;;;;500636;237;2148;-43
2022/12/16 03:38:26;;;;;;;;;;;21.60;31.40;;;;;;500344;237;1741;-44
2022/12/16 03:40:27;;;;;;;;;;;21.60;31.50;;;;;;500505;237;1697;-43
2022/12/16 03:42:29;;;;;;;;;;;21.60;31.50;;;;;;500534;237;1819;-44
2022/12/16 03:44:31;;;;;;;;;;;21.60;31.50;;;;;;500451;237;2509;-43
2022/12/16 03:46:32;;;;;;;;;;;21.50;31.60;;;;;;500590;237;1968;-43
2022/12/16 03:48:34;;;;;;;;;;;21.50;31.60;;;;;;500561;238;2099;-44
2022/12/16 03:50:35;;;;;;;;;;;21.50;31.60;;;;;;500598;237;2802;-43
2022/12/16 03:52:37;;;;;;;;;;;21.50;31.60;;;;;;500591;237;1713;-43
2022/12/16 03:54:38;;;;;;;;;;;21.50;31.60;;;;;;500620;237;1820;-43
2022/12/16 03:56:39;;;;;;;;;;;21.50;31.70;;;;;;500710;237;2164;-43
2022/12/16 03:58:41;;;;;;;;;;;21.50;31.70;;;;;;500731;237;1436;-43
2022/12/16 04:00:42;;;;;;;;;;;21.50;31.70;;;;;;500590;237;1688;-43
2022/12/16 04:02:44;;;;;;;;;;;21.40;31.70;;;;;;500572;237;1748;-43
2022/12/16 04:04:45;;;;;;;;;;;21.50;31.70;;;;;;500352;237;2112;-43
2022/12/16 04:07:18;;;;;;;;;;;21.50;31.70;;;;;;500556;237;1736;-41
2022/12/16 04:08:49;;;;;;;;;;;21.50;31.70;;;;;;498688;238;2058;-44
2022/12/16 04:24:46;;;;;;;;;;;21.40;31.70;;;;;;500823;238;1369;-43
2022/12/16 04:29:08;;;;;;;;;;;21.40;31.70;;;;;;500928;238;1259;-41
2022/12/16 04:31:09;;;;;;;;;;;21.50;31.80;;;;;;500860;237;1330;-41
